createdAt,value
2023-01-20T00:00:01.661Z,84.32
2023-01-20T00:00:11.899Z,84.32
2023-01-20T00:00:22.196Z,84.32
2023-01-20T00:00:32.530Z,84.32
2023-01-20T00:00:42.771Z,84.32
2023-01-20T00:00:53.016Z,84.32
2023-01-20T00:01:03.231Z,84.32
2023-01-20T00:01:13.458Z,84.32
2023-01-20T00:01:23.712Z,84.32
2023-01-20T00:01:33.937Z,84.32
2023-01-20T00:01:44.188Z,84.32
2023-01-20T00:01:54.435Z,84.32
2023-01-20T00:02:04.645Z,84.32
2023-01-20T00:02:14.925Z,84.32
2023-01-20T00:02:25.181Z,84.32
2023-01-20T00:02:35.385Z,84.32
2023-01-20T00:02:45.696Z,84.32
2023-01-20T00:02:56.022Z,84.36
2023-01-20T00:03:06.260Z,84.32
2023-01-20T00:03:16.487Z,84.32
2023-01-20T00:03:26.750Z,84.32
2023-01-20T00:03:36.965Z,84.32
2023-01-20T00:03:47.233Z,84.32
2023-01-20T00:03:57.536Z,84.36
2023-01-20T00:04:07.760Z,84.32
2023-01-20T00:04:18.004Z,84.36
2023-01-20T00:04:28.241Z,84.32
2023-01-20T00:04:38.492Z,84.32
2023-01-20T00:04:48.738Z,84.32
2023-01-20T00:04:59.032Z,84.32
2023-01-20T00:05:09.282Z,84.36
2023-01-20T00:05:19.528Z,84.36
2023-01-20T00:05:29.759Z,84.36
2023-01-20T00:05:39.995Z,84.32
2023-01-20T00:05:50.229Z,84.36
2023-01-20T00:06:00.493Z,84.36
2023-01-20T00:06:10.718Z,84.36
2023-01-20T00:06:20.955Z,84.36
2023-01-20T00:06:31.216Z,84.36
2023-01-20T00:06:41.449Z,84.36
2023-01-20T00:06:51.690Z,84.36
2023-01-20T00:07:01.947Z,84.36
2023-01-20T00:07:12.190Z,84.36
2023-01-20T00:07:22.416Z,84.36
2023-01-20T00:07:32.655Z,84.25
2023-01-20T00:07:42.903Z,84.25
2023-01-20T00:07:53.194Z,84.25
2023-01-20T00:08:03.430Z,84.25
2023-01-20T00:08:13.669Z,84.25
2023-01-20T00:08:23.913Z,84.25
2023-01-20T00:08:34.165Z,84.25
2023-01-20T00:08:44.392Z,84.25
2023-01-20T00:08:54.635Z,84.25
2023-01-20T00:09:04.900Z,84.25
2023-01-20T00:09:15.117Z,84.25
2023-01-20T00:09:25.350Z,84.25
2023-01-20T00:09:35.619Z,84.25
2023-01-20T00:09:45.874Z,84.25
2023-01-20T00:09:56.127Z,84.25
2023-01-20T00:10:06.354Z,84.25
2023-01-20T00:10:16.575Z,84.25
2023-01-20T00:10:26.858Z,84.25
2023-01-20T00:10:37.097Z,84.25
2023-01-20T00:10:47.311Z,84.25
2023-01-20T00:10:57.546Z,84.25
2023-01-20T00:11:07.779Z,84.25
2023-01-20T00:11:18.014Z,84.25
2023-01-20T00:11:28.257Z,84.25
2023-01-20T00:11:38.501Z,84.25
2023-01-20T00:11:48.754Z,84.25
2023-01-20T00:11:58.997Z,84.25
2023-01-20T00:12:09.227Z,84.25
2023-01-20T00:12:19.462Z,84.25
2023-01-20T00:12:29.699Z,84.25
2023-01-20T00:12:39.934Z,84.25
2023-01-20T00:12:50.183Z,84.15
2023-01-20T00:13:00.418Z,84.15
2023-01-20T00:13:10.658Z,84.15
2023-01-20T00:13:20.902Z,84.15
2023-01-20T00:13:31.148Z,84.15
2023-01-20T00:13:41.376Z,84.15
2023-01-20T00:13:51.624Z,84.15
2023-01-20T00:14:01.871Z,84.15
2023-01-20T00:14:12.098Z,84.15
2023-01-20T00:14:22.341Z,84.15
2023-01-20T00:14:32.572Z,84.15
2023-01-20T00:14:42.806Z,84.15
2023-01-20T00:14:53.035Z,84.15
2023-01-20T00:15:03.280Z,84.15
2023-01-20T00:15:13.892Z,84.15
2023-01-20T00:15:23.798Z,84.15
2023-01-20T00:15:34.043Z,84.15
2023-01-20T00:15:44.310Z,84.15
2023-01-20T00:15:54.559Z,84.15
2023-01-20T00:16:04.819Z,84.15
2023-01-20T00:16:15.116Z,84.15
2023-01-20T00:16:25.318Z,84.15
2023-01-20T00:16:35.575Z,84.15
2023-01-20T00:16:45.799Z,84.15
2023-01-20T00:16:56.037Z,84.15
2023-01-20T00:17:06.309Z,84.15
2023-01-20T00:17:16.537Z,84.15
2023-01-20T00:17:26.763Z,84.15
2023-01-20T00:17:37.000Z,84.15
2023-01-20T00:17:47.256Z,84.15
2023-01-20T00:17:57.501Z,84.15
2023-01-20T00:18:07.730Z,84.15
2023-01-20T00:18:17.987Z,84.15
2023-01-20T00:18:28.228Z,84.15
2023-01-20T00:18:38.480Z,84.15
2023-01-20T00:18:48.713Z,84.15
2023-01-20T00:18:58.956Z,84.05
2023-01-20T00:19:09.182Z,84.05
2023-01-20T00:19:19.426Z,84.05
2023-01-20T00:19:29.664Z,84.05
2023-01-20T00:19:39.918Z,84.05
2023-01-20T00:19:50.127Z,84.05
2023-01-20T00:20:00.382Z,84.05
2023-01-20T00:20:10.605Z,84.05
2023-01-20T00:20:20.837Z,84.05
2023-01-20T00:20:31.151Z,84.05
2023-01-20T00:20:41.366Z,84.05
2023-01-20T00:20:51.605Z,84.05
2023-01-20T00:21:01.834Z,84.05
2023-01-20T00:21:12.077Z,84.05
2023-01-20T00:21:22.324Z,84.05
2023-01-20T00:21:32.547Z,84.05
2023-01-20T00:21:42.776Z,84.05
2023-01-20T00:21:53.009Z,84.05
2023-01-20T00:22:03.278Z,84.05
2023-01-20T00:22:13.482Z,84.05
2023-01-20T00:22:23.721Z,84.05
2023-01-20T00:22:33.948Z,84.05
2023-01-20T00:22:44.259Z,84.05
2023-01-20T00:22:54.486Z,84.05
2023-01-20T00:23:04.739Z,84.05
2023-01-20T00:23:15.001Z,84.05
2023-01-20T00:23:25.236Z,83.94
2023-01-20T00:23:35.467Z,83.94
2023-01-20T00:23:45.698Z,83.94
2023-01-20T00:23:55.942Z,83.94
2023-01-20T00:24:06.174Z,83.94
2023-01-20T00:24:16.407Z,83.94
2023-01-20T00:24:26.652Z,83.94
2023-01-20T00:24:36.888Z,83.94
2023-01-20T00:24:47.131Z,83.94
2023-01-20T00:24:57.361Z,83.94
2023-01-20T00:25:07.593Z,83.94
2023-01-20T00:25:17.829Z,83.94
2023-01-20T00:25:28.073Z,83.94
2023-01-20T00:25:38.315Z,83.94
2023-01-20T00:25:48.551Z,83.94
2023-01-20T00:25:58.782Z,83.94
2023-01-20T00:26:09.024Z,83.94
2023-01-20T00:26:19.289Z,83.94
2023-01-20T00:26:29.496Z,83.98
2023-01-20T00:26:39.740Z,83.94
2023-01-20T00:26:49.980Z,83.94
2023-01-20T00:27:00.217Z,83.94
2023-01-20T00:27:10.456Z,83.94
2023-01-20T00:27:20.688Z,83.94
2023-01-20T00:27:30.926Z,83.98
2023-01-20T00:27:41.162Z,83.98
2023-01-20T00:27:51.413Z,83.87
2023-01-20T00:28:01.643Z,83.87
2023-01-20T00:28:11.885Z,83.87
2023-01-20T00:28:22.125Z,83.83
2023-01-20T00:28:32.357Z,83.87
2023-01-20T00:28:42.622Z,83.87
2023-01-20T00:28:52.871Z,83.87
2023-01-20T00:29:03.105Z,83.87
2023-01-20T00:29:13.364Z,83.87
2023-01-20T00:29:23.577Z,83.87
2023-01-20T00:29:33.819Z,83.87
2023-01-20T00:29:44.062Z,83.87
2023-01-20T00:29:54.295Z,83.98
2023-01-20T00:30:04.536Z,83.98
2023-01-20T00:30:14.816Z,83.98
2023-01-20T00:30:25.065Z,83.98
2023-01-20T00:30:35.436Z,83.98
2023-01-20T00:30:45.707Z,83.98
2023-01-20T00:30:56.123Z,83.98
2023-01-20T00:31:06.174Z,83.98
2023-01-20T00:31:16.454Z,83.98
2023-01-20T00:31:26.742Z,83.98
2023-01-20T00:31:37.005Z,83.98
2023-01-20T00:31:47.265Z,83.87
2023-01-20T00:31:57.525Z,83.98
2023-01-20T00:32:07.765Z,83.98
2023-01-20T00:32:18.022Z,83.87
2023-01-20T00:32:28.241Z,83.98
2023-01-20T00:32:38.487Z,83.98
2023-01-20T00:32:48.760Z,83.87
2023-01-20T00:32:58.999Z,83.87
2023-01-20T00:33:09.243Z,83.87
2023-01-20T00:33:19.481Z,83.87
2023-01-20T00:33:29.712Z,83.87
2023-01-20T00:33:39.962Z,83.87
2023-01-20T00:33:50.188Z,83.87
2023-01-20T00:34:00.433Z,83.87
2023-01-20T00:34:10.687Z,83.87
2023-01-20T00:34:20.922Z,83.87
2023-01-20T00:34:31.151Z,83.87
2023-01-20T00:34:41.394Z,83.87
2023-01-20T00:34:51.658Z,83.87
2023-01-20T00:35:01.922Z,83.87
2023-01-20T00:35:12.562Z,83.87
2023-01-20T00:35:22.493Z,83.87
2023-01-20T00:35:32.724Z,83.87
2023-01-20T00:35:42.960Z,83.87
2023-01-20T00:35:53.203Z,83.87
2023-01-20T00:36:03.431Z,83.87
2023-01-20T00:36:13.670Z,83.87
2023-01-20T00:36:23.917Z,83.87
2023-01-20T00:36:34.157Z,83.87
2023-01-20T00:36:44.379Z,83.87
2023-01-20T00:36:54.613Z,83.87
2023-01-20T00:37:04.848Z,83.77
2023-01-20T00:37:15.085Z,83.77
2023-01-20T00:37:25.319Z,83.77
2023-01-20T00:37:35.551Z,83.77
2023-01-20T00:37:45.806Z,83.77
2023-01-20T00:37:56.039Z,83.77
2023-01-20T00:38:06.297Z,83.77
2023-01-20T00:38:16.508Z,83.77
2023-01-20T00:38:26.783Z,83.77
2023-01-20T00:38:36.996Z,83.77
2023-01-20T00:38:47.235Z,83.77
2023-01-20T00:38:57.485Z,83.77
2023-01-20T00:39:07.716Z,83.77
2023-01-20T00:39:17.964Z,83.77
2023-01-20T00:39:28.266Z,83.77
2023-01-20T00:39:38.501Z,83.77
2023-01-20T00:39:48.721Z,83.77
2023-01-20T00:39:58.948Z,83.77
2023-01-20T00:40:09.197Z,83.66
2023-01-20T00:40:19.443Z,83.77
2023-01-20T00:40:29.677Z,83.66
2023-01-20T00:40:39.913Z,83.66
2023-01-20T00:40:50.145Z,83.66
2023-01-20T00:41:00.388Z,83.66
2023-01-20T00:41:10.654Z,83.66
2023-01-20T00:41:20.874Z,83.66
2023-01-20T00:41:31.098Z,83.66
2023-01-20T00:41:41.333Z,83.66
2023-01-20T00:41:51.573Z,83.56
2023-01-20T00:42:01.811Z,83.56
2023-01-20T00:42:12.041Z,83.56
2023-01-20T00:42:22.274Z,83.56
2023-01-20T00:42:32.520Z,83.56
2023-01-20T00:42:42.751Z,83.56
2023-01-20T00:42:53.012Z,83.56
2023-01-20T00:43:03.245Z,83.56
2023-01-20T00:43:13.484Z,83.56
2023-01-20T00:43:23.738Z,83.56
2023-01-20T00:43:33.965Z,83.56
2023-01-20T00:43:44.211Z,83.56
2023-01-20T00:43:54.457Z,83.56
2023-01-20T00:44:04.673Z,83.56
2023-01-20T00:44:14.913Z,83.56
2023-01-20T00:44:25.143Z,83.56
2023-01-20T00:44:35.378Z,83.56
2023-01-20T00:44:45.646Z,83.56
2023-01-20T00:44:55.880Z,83.56
2023-01-20T00:45:06.108Z,83.56
2023-01-20T00:45:16.342Z,83.56
2023-01-20T00:45:26.585Z,83.56
2023-01-20T00:45:36.840Z,83.56
2023-01-20T00:45:47.075Z,83.56
2023-01-20T00:45:57.322Z,83.56
2023-01-20T00:46:07.560Z,83.56
2023-01-20T00:46:17.850Z,83.59
2023-01-20T00:46:28.154Z,83.56
2023-01-20T00:46:38.439Z,83.56
2023-01-20T00:46:48.781Z,83.56
2023-01-20T00:46:59.002Z,83.59
2023-01-20T00:47:09.250Z,83.59
2023-01-20T00:47:19.536Z,83.59
2023-01-20T00:47:29.729Z,83.59
2023-01-20T00:47:39.969Z,83.59
2023-01-20T00:47:50.258Z,83.56
2023-01-20T00:48:00.492Z,83.59
2023-01-20T00:48:10.734Z,83.59
2023-01-20T00:48:20.963Z,83.59
2023-01-20T00:48:31.214Z,83.59
2023-01-20T00:48:41.442Z,83.59
2023-01-20T00:48:51.679Z,83.59
2023-01-20T00:49:01.935Z,83.59
2023-01-20T00:49:12.175Z,83.59
2023-01-20T00:49:22.401Z,83.59
2023-01-20T00:49:32.631Z,83.49
2023-01-20T00:49:42.869Z,83.49
2023-01-20T00:49:53.113Z,83.49
2023-01-20T00:50:03.357Z,83.49
2023-01-20T00:50:13.595Z,83.49
2023-01-20T00:50:23.843Z,83.49
2023-01-20T00:50:34.081Z,83.49
2023-01-20T00:50:44.320Z,83.49
2023-01-20T00:50:54.556Z,83.49
2023-01-20T00:51:04.791Z,83.49
2023-01-20T00:51:15.029Z,83.49
2023-01-20T00:51:25.292Z,83.49
2023-01-20T00:51:35.538Z,83.49
2023-01-20T00:51:45.767Z,83.49
2023-01-20T00:51:56.007Z,83.49
2023-01-20T00:52:06.243Z,83.49
2023-01-20T00:52:16.494Z,83.49
2023-01-20T00:52:26.718Z,83.49
2023-01-20T00:52:36.967Z,83.49
2023-01-20T00:52:47.246Z,83.49
2023-01-20T00:52:57.480Z,83.49
2023-01-20T00:53:07.724Z,83.49
2023-01-20T00:53:17.977Z,83.49
2023-01-20T00:53:28.215Z,83.49
2023-01-20T00:53:38.452Z,83.49
2023-01-20T00:53:48.676Z,83.49
2023-01-20T00:53:58.928Z,83.49
2023-01-20T00:54:09.179Z,83.49
2023-01-20T00:54:19.420Z,83.49
2023-01-20T00:54:29.663Z,83.49
2023-01-20T00:54:39.883Z,83.49
2023-01-20T00:54:50.118Z,83.49
2023-01-20T00:55:00.370Z,83.49
2023-01-20T00:55:10.759Z,83.49
2023-01-20T00:55:20.961Z,83.49
2023-01-20T00:55:31.196Z,83.49
2023-01-20T00:55:41.427Z,83.49
2023-01-20T00:55:51.668Z,83.49
2023-01-20T00:56:01.907Z,83.49
2023-01-20T00:56:12.144Z,83.49
2023-01-20T00:56:22.374Z,83.49
2023-01-20T00:56:32.611Z,83.49
2023-01-20T00:56:42.855Z,83.49
2023-01-20T00:56:53.092Z,83.49
2023-01-20T00:57:03.333Z,83.49
2023-01-20T00:57:13.573Z,83.49
2023-01-20T00:57:23.810Z,83.49
2023-01-20T00:57:34.066Z,83.39
2023-01-20T00:57:44.320Z,83.39
2023-01-20T00:57:54.543Z,83.39
2023-01-20T00:58:04.803Z,83.39
2023-01-20T00:58:15.026Z,83.39
2023-01-20T00:58:25.278Z,83.39
2023-01-20T00:58:35.510Z,83.39
2023-01-20T00:58:45.739Z,83.39
2023-01-20T00:58:56.002Z,83.39
2023-01-20T00:59:06.240Z,83.39
2023-01-20T00:59:16.470Z,83.39
2023-01-20T00:59:26.706Z,83.39
2023-01-20T00:59:36.949Z,83.39
2023-01-20T00:59:47.179Z,83.39
2023-01-20T00:59:57.420Z,83.39
2023-01-20T01:00:07.648Z,83.39
2023-01-20T01:00:17.883Z,83.39
2023-01-20T01:00:28.188Z,83.39
2023-01-20T01:00:38.421Z,83.39
2023-01-20T01:00:48.749Z,83.39
2023-01-20T01:00:59.224Z,83.39
2023-01-20T01:01:09.394Z,83.39
2023-01-20T01:01:19.819Z,83.39
2023-01-20T01:01:30.141Z,83.39
2023-01-20T01:01:40.457Z,83.39
2023-01-20T01:01:50.715Z,83.39
2023-01-20T01:02:01.137Z,83.39
2023-01-20T01:02:11.375Z,83.39
2023-01-20T01:02:21.792Z,83.39
2023-01-20T01:02:32.096Z,83.39
2023-01-20T01:02:42.411Z,83.39
2023-01-20T01:02:54.914Z,83.39
2023-01-20T01:03:02.942Z,83.39
2023-01-20T01:03:13.194Z,83.39
2023-01-20T01:03:23.422Z,83.39
2023-01-20T01:03:33.654Z,83.39
2023-01-20T01:03:43.949Z,83.39
2023-01-20T01:03:54.163Z,83.39
2023-01-20T01:04:04.443Z,83.39
2023-01-20T01:04:14.688Z,83.39
2023-01-20T01:04:24.922Z,83.39
2023-01-20T01:04:35.172Z,83.32
2023-01-20T01:04:45.402Z,83.39
2023-01-20T01:04:55.644Z,83.39
2023-01-20T01:05:05.875Z,83.42
2023-01-20T01:05:16.108Z,83.39
2023-01-20T01:05:26.354Z,83.42
2023-01-20T01:05:36.580Z,83.42
2023-01-20T01:05:46.818Z,83.39
2023-01-20T01:05:57.062Z,83.32
2023-01-20T01:06:07.310Z,83.32
2023-01-20T01:06:17.530Z,83.32
2023-01-20T01:06:27.762Z,83.42
2023-01-20T01:06:37.995Z,83.32
2023-01-20T01:06:48.234Z,83.32
2023-01-20T01:06:58.471Z,83.39
2023-01-20T01:07:08.704Z,83.32
2023-01-20T01:07:18.948Z,83.32
2023-01-20T01:07:29.177Z,83.32
2023-01-20T01:07:39.430Z,83.32
2023-01-20T01:07:49.699Z,83.32
2023-01-20T01:07:59.924Z,83.32
2023-01-20T01:08:10.158Z,83.32
2023-01-20T01:08:20.414Z,83.42
2023-01-20T01:08:30.673Z,83.42
2023-01-20T01:08:40.881Z,83.42
2023-01-20T01:08:51.125Z,83.42
2023-01-20T01:09:01.358Z,83.42
2023-01-20T01:09:11.595Z,83.42
2023-01-20T01:09:21.836Z,83.42
2023-01-20T01:09:32.067Z,83.42
2023-01-20T01:09:42.311Z,83.42
2023-01-20T01:09:52.602Z,83.42
2023-01-20T01:10:02.816Z,83.42
2023-01-20T01:10:13.063Z,83.42
2023-01-20T01:10:23.310Z,83.42
2023-01-20T01:10:33.532Z,83.42
2023-01-20T01:10:43.816Z,83.42
2023-01-20T01:10:54.015Z,83.42
2023-01-20T01:11:04.260Z,83.42
2023-01-20T01:11:14.515Z,83.42
2023-01-20T01:11:24.726Z,83.42
2023-01-20T01:11:34.976Z,83.42
2023-01-20T01:11:45.197Z,83.42
2023-01-20T01:11:55.440Z,83.42
2023-01-20T01:12:05.670Z,83.42
2023-01-20T01:12:15.912Z,83.42
2023-01-20T01:12:26.148Z,83.42
2023-01-20T01:12:36.393Z,83.42
2023-01-20T01:12:46.626Z,83.42
2023-01-20T01:12:56.870Z,83.42
2023-01-20T01:13:07.100Z,83.42
2023-01-20T01:13:17.337Z,83.42
2023-01-20T01:13:27.586Z,83.42
2023-01-20T01:13:37.841Z,83.42
2023-01-20T01:13:48.062Z,83.42
2023-01-20T01:13:58.306Z,83.42
2023-01-20T01:14:08.536Z,83.42
2023-01-20T01:14:18.773Z,83.42
2023-01-20T01:14:29.013Z,83.42
2023-01-20T01:14:39.250Z,83.42
2023-01-20T01:14:49.491Z,83.42
2023-01-20T01:14:59.728Z,83.42
2023-01-20T01:15:09.977Z,83.53
2023-01-20T01:15:20.211Z,83.53
2023-01-20T01:15:30.446Z,83.53
2023-01-20T01:15:40.697Z,83.53
2023-01-20T01:15:50.989Z,83.53
2023-01-20T01:16:01.276Z,83.53
2023-01-20T01:16:11.529Z,83.53
2023-01-20T01:16:21.810Z,83.53
2023-01-20T01:16:32.139Z,83.53
2023-01-20T01:16:42.348Z,83.53
2023-01-20T01:16:52.610Z,83.42
2023-01-20T01:17:02.832Z,83.53
2023-01-20T01:17:13.067Z,83.42
2023-01-20T01:17:23.303Z,83.42
2023-01-20T01:17:33.553Z,83.42
2023-01-20T01:17:43.785Z,83.53
2023-01-20T01:17:54.022Z,83.53
2023-01-20T01:18:04.264Z,83.53
2023-01-20T01:18:14.507Z,83.53
2023-01-20T01:18:24.739Z,83.53
2023-01-20T01:18:34.984Z,83.53
2023-01-20T01:18:45.290Z,83.53
2023-01-20T01:18:55.546Z,83.53
2023-01-20T01:19:05.789Z,83.53
2023-01-20T01:19:15.999Z,83.53
2023-01-20T01:19:26.239Z,83.53
2023-01-20T01:19:36.476Z,83.53
2023-01-20T01:19:46.729Z,83.53
2023-01-20T01:19:56.956Z,83.53
2023-01-20T01:20:07.199Z,83.53
2023-01-20T01:20:17.439Z,83.53
2023-01-20T01:20:27.684Z,83.53
2023-01-20T01:20:37.918Z,83.53
2023-01-20T01:20:48.157Z,83.53
2023-01-20T01:20:58.390Z,83.53
2023-01-20T01:21:08.659Z,83.53
2023-01-20T01:21:18.877Z,83.53
2023-01-20T01:21:29.125Z,83.53
2023-01-20T01:21:39.361Z,83.53
2023-01-20T01:21:49.595Z,83.53
2023-01-20T01:21:59.848Z,83.53
2023-01-20T01:22:10.098Z,83.53
2023-01-20T01:22:20.352Z,83.64
2023-01-20T01:22:30.566Z,83.64
2023-01-20T01:22:40.812Z,83.64
2023-01-20T01:22:51.063Z,83.64
2023-01-20T01:23:01.291Z,83.64
2023-01-20T01:23:11.525Z,83.64
2023-01-20T01:23:21.763Z,83.64
2023-01-20T01:23:32.007Z,83.64
2023-01-20T01:23:42.264Z,83.64
2023-01-20T01:23:52.485Z,83.64
2023-01-20T01:24:02.727Z,83.64
2023-01-20T01:24:12.957Z,83.64
2023-01-20T01:24:23.194Z,83.64
2023-01-20T01:24:33.432Z,83.64
2023-01-20T01:24:43.676Z,83.64
2023-01-20T01:24:53.928Z,83.64
2023-01-20T01:25:04.161Z,83.64
2023-01-20T01:25:14.850Z,83.64
2023-01-20T01:25:24.773Z,83.64
2023-01-20T01:25:35.019Z,83.64
2023-01-20T01:25:45.256Z,83.64
2023-01-20T01:25:55.482Z,83.64
2023-01-20T01:26:05.733Z,83.64
2023-01-20T01:26:15.971Z,83.64
2023-01-20T01:26:26.229Z,83.64
2023-01-20T01:26:36.446Z,83.64
2023-01-20T01:26:46.697Z,83.64
2023-01-20T01:26:56.930Z,83.64
2023-01-20T01:27:07.169Z,83.64
2023-01-20T01:27:17.396Z,83.64
2023-01-20T01:27:27.638Z,83.74
2023-01-20T01:27:37.919Z,83.64
2023-01-20T01:27:48.165Z,83.64
2023-01-20T01:27:58.398Z,83.64
2023-01-20T01:28:08.635Z,83.74
2023-01-20T01:28:18.866Z,83.74
2023-01-20T01:28:29.113Z,83.64
2023-01-20T01:28:39.335Z,83.64
2023-01-20T01:28:49.570Z,83.64
2023-01-20T01:28:59.863Z,83.64
2023-01-20T01:29:10.079Z,83.64
2023-01-20T01:29:20.333Z,83.64
2023-01-20T01:29:30.562Z,83.64
2023-01-20T01:29:40.801Z,83.64
2023-01-20T01:29:51.046Z,83.64
2023-01-20T01:30:01.288Z,83.64
2023-01-20T01:30:11.508Z,83.67
2023-01-20T01:30:21.755Z,83.64
2023-01-20T01:30:32.027Z,83.64
2023-01-20T01:30:42.319Z,83.64
2023-01-20T01:30:52.587Z,83.64
2023-01-20T01:31:03.012Z,83.67
2023-01-20T01:31:13.070Z,83.67
2023-01-20T01:31:23.320Z,83.67
2023-01-20T01:31:33.588Z,83.67
2023-01-20T01:31:43.824Z,83.67
2023-01-20T01:31:54.064Z,83.67
2023-01-20T01:32:04.307Z,83.67
2023-01-20T01:32:14.540Z,83.67
2023-01-20T01:32:24.807Z,83.64
2023-01-20T01:32:35.016Z,83.67
2023-01-20T01:32:45.282Z,83.67
2023-01-20T01:32:55.507Z,83.67
2023-01-20T01:33:05.753Z,83.67
2023-01-20T01:33:16.005Z,83.67
2023-01-20T01:33:26.230Z,83.67
2023-01-20T01:33:36.474Z,83.67
2023-01-20T01:33:46.714Z,83.67
2023-01-20T01:33:56.953Z,83.67
2023-01-20T01:34:07.184Z,83.67
2023-01-20T01:34:17.467Z,83.67
2023-01-20T01:34:27.727Z,83.67
2023-01-20T01:34:37.952Z,83.67
2023-01-20T01:34:48.188Z,83.67
2023-01-20T01:34:58.434Z,83.67
2023-01-20T01:35:08.669Z,83.67
2023-01-20T01:35:18.925Z,83.67
2023-01-20T01:35:29.152Z,83.67
2023-01-20T01:35:39.400Z,83.67
2023-01-20T01:35:49.646Z,83.67
2023-01-20T01:35:59.916Z,83.67
2023-01-20T01:36:10.123Z,83.67
2023-01-20T01:36:20.360Z,83.67
2023-01-20T01:36:30.595Z,83.67
2023-01-20T01:36:40.842Z,83.67
2023-01-20T01:36:51.071Z,83.67
2023-01-20T01:37:01.313Z,83.67
2023-01-20T01:37:11.565Z,83.67
2023-01-20T01:37:21.783Z,83.67
2023-01-20T01:37:32.011Z,83.67
2023-01-20T01:37:42.254Z,83.67
2023-01-20T01:37:52.504Z,83.57
2023-01-20T01:38:02.740Z,83.57
2023-01-20T01:38:12.970Z,83.57
2023-01-20T01:38:23.210Z,83.57
2023-01-20T01:38:33.463Z,83.57
2023-01-20T01:38:43.691Z,83.57
2023-01-20T01:38:57.148Z,83.57
2023-01-20T01:39:05.343Z,83.57
2023-01-20T01:39:14.728Z,83.57
2023-01-20T01:39:24.978Z,83.47
2023-01-20T01:39:35.209Z,83.47
2023-01-20T01:39:45.467Z,83.47
2023-01-20T01:39:55.682Z,83.47
2023-01-20T01:40:05.916Z,83.47
2023-01-20T01:40:16.165Z,83.47
2023-01-20T01:40:26.406Z,83.47
2023-01-20T01:40:36.623Z,83.47
2023-01-20T01:40:46.875Z,83.47
2023-01-20T01:40:57.106Z,83.47
2023-01-20T01:41:07.360Z,83.47
2023-01-20T01:41:17.598Z,83.47
2023-01-20T01:41:27.853Z,83.47
2023-01-20T01:41:38.070Z,83.47
2023-01-20T01:41:48.309Z,83.47
2023-01-20T01:41:58.544Z,83.36
2023-01-20T01:42:08.799Z,83.47
2023-01-20T01:42:19.029Z,83.36
2023-01-20T01:42:29.265Z,83.36
2023-01-20T01:42:41.928Z,83.36
2023-01-20T01:42:49.833Z,83.36
2023-01-20T01:43:00.081Z,83.36
2023-01-20T01:43:10.304Z,83.36
2023-01-20T01:43:20.535Z,83.36
2023-01-20T01:43:30.809Z,83.36
2023-01-20T01:43:41.029Z,83.36
2023-01-20T01:43:51.254Z,83.36
2023-01-20T01:44:01.488Z,83.36
2023-01-20T01:44:11.739Z,83.36
2023-01-20T01:44:21.968Z,83.36
2023-01-20T01:44:32.206Z,83.36
2023-01-20T01:44:42.437Z,83.36
2023-01-20T01:44:52.685Z,83.36
2023-01-20T01:45:02.920Z,83.36
2023-01-20T01:45:13.871Z,83.36
2023-01-20T01:45:23.435Z,83.36
2023-01-20T01:45:33.713Z,83.25
2023-01-20T01:45:44.012Z,83.25
2023-01-20T01:45:54.360Z,83.25
2023-01-20T01:46:04.639Z,83.25
2023-01-20T01:46:14.857Z,83.25
2023-01-20T01:46:25.102Z,83.25
2023-01-20T01:46:35.352Z,83.25
2023-01-20T01:46:45.595Z,83.25
2023-01-20T01:46:55.823Z,83.25
2023-01-20T01:47:06.050Z,83.25
2023-01-20T01:47:16.293Z,83.25
2023-01-20T01:47:26.524Z,83.25
2023-01-20T01:47:36.764Z,83.25
2023-01-20T01:47:47.028Z,83.25
2023-01-20T01:47:57.247Z,83.15
2023-01-20T01:48:07.496Z,83.15
2023-01-20T01:48:17.723Z,83.15
2023-01-20T01:48:27.964Z,83.15
2023-01-20T01:48:38.211Z,83.15
2023-01-20T01:48:48.429Z,83.15
2023-01-20T01:48:58.670Z,83.15
2023-01-20T01:49:08.909Z,83.15
2023-01-20T01:49:19.141Z,83.15
2023-01-20T01:49:29.370Z,83.15
2023-01-20T01:49:39.606Z,83.15
2023-01-20T01:49:49.897Z,83.15
2023-01-20T01:50:00.135Z,83.15
2023-01-20T01:50:10.330Z,83.15
2023-01-20T01:50:20.563Z,83.15
2023-01-20T01:50:30.815Z,83.15
2023-01-20T01:50:41.057Z,83.15
2023-01-20T01:50:51.285Z,83.15
2023-01-20T01:51:01.556Z,83.15
2023-01-20T01:51:11.787Z,83.15
2023-01-20T01:51:22.061Z,83.15
2023-01-20T01:51:32.274Z,83.15
2023-01-20T01:51:42.516Z,83.15
2023-01-20T01:51:52.739Z,83.15
2023-01-20T01:52:02.992Z,83.15
2023-01-20T01:52:13.223Z,83.15
2023-01-20T01:52:23.474Z,83.15
2023-01-20T01:52:33.712Z,83.15
2023-01-20T01:52:43.951Z,83.15
2023-01-20T01:52:54.204Z,83.04
2023-01-20T01:53:04.436Z,83.04
2023-01-20T01:53:14.680Z,83.04
2023-01-20T01:53:24.923Z,83.04
2023-01-20T01:53:35.187Z,83.04
2023-01-20T01:53:45.426Z,83.04
2023-01-20T01:53:55.657Z,83.04
2023-01-20T01:54:05.891Z,83.04
2023-01-20T01:54:16.127Z,83.04
2023-01-20T01:54:26.371Z,83.04
2023-01-20T01:54:36.607Z,83.04
2023-01-20T01:54:46.835Z,83.04
2023-01-20T01:54:57.079Z,83.08
2023-01-20T01:55:07.309Z,83.04
2023-01-20T01:55:17.556Z,83.08
2023-01-20T01:55:27.800Z,83.04
2023-01-20T01:55:38.048Z,83.08
2023-01-20T01:55:48.267Z,83.08
2023-01-20T01:55:58.506Z,83.04
2023-01-20T01:56:08.737Z,83.08
2023-01-20T01:56:18.984Z,83.08
2023-01-20T01:56:29.218Z,83.08
2023-01-20T01:56:39.459Z,83.08
2023-01-20T01:56:49.701Z,82.94
2023-01-20T01:56:59.953Z,82.98
2023-01-20T01:57:10.185Z,82.98
2023-01-20T01:57:20.421Z,82.98
2023-01-20T01:57:30.659Z,82.98
2023-01-20T01:57:40.891Z,82.98
2023-01-20T01:57:51.144Z,82.98
2023-01-20T01:58:01.374Z,82.98
2023-01-20T01:58:11.624Z,82.98
2023-01-20T01:58:21.885Z,82.98
2023-01-20T01:58:32.118Z,82.98
2023-01-20T01:58:42.329Z,82.98
2023-01-20T01:58:52.610Z,82.98
2023-01-20T01:59:02.851Z,82.98
2023-01-20T01:59:13.087Z,82.98
2023-01-20T01:59:23.322Z,82.98
2023-01-20T01:59:33.553Z,82.98
2023-01-20T01:59:43.815Z,82.98
2023-01-20T01:59:54.165Z,82.98
2023-01-20T02:00:04.428Z,82.98
2023-01-20T02:00:14.670Z,82.98
2023-01-20T02:00:24.891Z,82.98
2023-01-20T02:00:35.221Z,82.98
2023-01-20T02:00:45.500Z,82.98
2023-01-20T02:00:55.769Z,82.98
2023-01-20T02:01:06.066Z,82.98
2023-01-20T02:01:16.403Z,82.87
2023-01-20T02:01:26.768Z,82.87
2023-01-20T02:01:37.084Z,82.87
2023-01-20T02:01:47.461Z,82.87
2023-01-20T02:01:57.819Z,82.87
2023-01-20T02:02:08.108Z,82.87
2023-01-20T02:02:18.410Z,82.87
2023-01-20T02:02:28.694Z,82.87
2023-01-20T02:02:38.970Z,82.87
2023-01-20T02:02:49.200Z,82.87
2023-01-20T02:02:59.450Z,82.87
2023-01-20T02:03:09.667Z,82.87
2023-01-20T02:03:19.910Z,82.87
2023-01-20T02:03:30.151Z,82.87
2023-01-20T02:03:40.384Z,82.87
2023-01-20T02:03:50.615Z,82.87
2023-01-20T02:04:00.866Z,82.87
2023-01-20T02:04:11.108Z,82.76
2023-01-20T02:04:21.331Z,82.76
2023-01-20T02:04:31.568Z,82.76
2023-01-20T02:04:41.818Z,82.76
2023-01-20T02:04:52.064Z,82.76
2023-01-20T02:05:02.303Z,82.76
2023-01-20T02:05:12.565Z,82.76
2023-01-20T02:05:22.784Z,82.76
2023-01-20T02:05:33.027Z,82.76
2023-01-20T02:05:43.337Z,82.76
2023-01-20T02:05:53.590Z,82.76
2023-01-20T02:06:03.859Z,82.76
2023-01-20T02:06:14.082Z,82.76
2023-01-20T02:06:24.335Z,82.76
2023-01-20T02:06:34.599Z,82.76
2023-01-20T02:06:44.809Z,82.76
2023-01-20T02:06:55.049Z,82.76
2023-01-20T02:07:05.287Z,82.76
2023-01-20T02:07:15.518Z,82.76
2023-01-20T02:07:25.758Z,82.76
2023-01-20T02:07:35.985Z,82.76
2023-01-20T02:07:46.249Z,82.76
2023-01-20T02:07:56.468Z,82.76
2023-01-20T02:08:06.768Z,82.76
2023-01-20T02:08:16.978Z,82.76
2023-01-20T02:08:27.215Z,82.76
2023-01-20T02:08:37.450Z,82.76
2023-01-20T02:08:47.720Z,82.76
2023-01-20T02:08:57.947Z,82.66
2023-01-20T02:09:08.184Z,82.76
2023-01-20T02:09:18.411Z,82.66
2023-01-20T02:09:28.658Z,82.66
2023-01-20T02:09:38.909Z,82.66
2023-01-20T02:09:49.119Z,82.66
2023-01-20T02:09:59.354Z,82.66
2023-01-20T02:10:09.607Z,82.66
2023-01-20T02:10:19.828Z,82.66
2023-01-20T02:10:30.095Z,82.66
2023-01-20T02:10:40.331Z,82.66
2023-01-20T02:10:50.578Z,82.70
2023-01-20T02:11:00.815Z,82.66
2023-01-20T02:11:11.038Z,82.66
2023-01-20T02:11:21.275Z,82.70
2023-01-20T02:11:31.515Z,82.66
2023-01-20T02:11:41.752Z,82.70
2023-01-20T02:11:51.991Z,82.70